sensor_id;sensor_type;location;lat;lon;timestamp;temperature;humidity
19906;DHT22;10115;50.906;4.438;2022-08-18T00:02:23;19.10;99.90
19906;DHT22;10115;50.906;4.438;2022-08-18T00:04:51;19.00;99.90
19906;DHT22;10115;50.906;4.438;2022-08-18T00:07:29;19.00;99.90
19906;DHT22;10115;50.906;4.438;2022-08-18T00:09:55;18.90;99.90
19906;DHT22;10115;50.906;4.438;2022-08-18T00:12:36;18.80;99.90
19906;DHT22;10115;50.906;4.438;2022-08-18T00:15:05;19.00;99.90
19906;DHT22;10115;50.906;4.438;2022-08-18T00:17:32;19.10;99.90
19906;DHT22;10115;50.906;4.438;2022-08-18T00:19:59;19.00;99.90
19906;DHT22;10115;50.906;4.438;2022-08-18T00:22:25;18.80;99.90
19906;DHT22;10115;50.906;4.438;2022-08-18T00:24:54;18.80;99.90
19906;DHT22;10115;50.906;4.438;2022-08-18T00:27:22;18.60;99.90
19906;DHT22;10115;50.906;4.438;2022-08-18T00:29:48;18.50;99.90
19906;DHT22;10115;50.906;4.438;2022-08-18T00:32:16;18.40;99.90
19906;DHT22;10115;50.906;4.438;2022-08-18T00:34:42;18.40;99.90
19906;DHT22;10115;50.906;4.438;2022-08-18T00:37:08;18.50;99.90
19906;DHT22;10115;50.906;4.438;2022-08-18T00:39:34;18.60;99.90
19906;DHT22;10115;50.906;4.438;2022-08-18T00:42:15;18.70;99.90
19906;DHT22;10115;50.906;4.438;2022-08-18T00:44:41;18.80;99.90
19906;DHT22;10115;50.906;4.438;2022-08-18T00:47:07;18.70;99.90
19906;DHT22;10115;50.906;4.438;2022-08-18T00:49:32;18.70;99.90
19906;DHT22;10115;50.906;4.438;2022-08-18T00:51:58;18.70;99.90
19906;DHT22;10115;50.906;4.438;2022-08-18T00:54:27;18.80;99.90
19906;DHT22;10115;50.906;4.438;2022-08-18T00:56:58;19.00;99.90
19906;DHT22;10115;50.906;4.438;2022-08-18T00:59:28;19.00;99.90
19906;DHT22;10115;50.906;4.438;2022-08-18T01:01:58;18.90;99.90
19906;DHT22;10115;50.906;4.438;2022-08-18T01:04:47;19.00;99.90
19906;DHT22;10115;50.906;4.438;2022-08-18T01:07:34;19.00;99.90
19906;DHT22;10115;50.906;4.438;2022-08-18T01:10:00;19.10;99.90
19906;DHT22;10115;50.906;4.438;2022-08-18T01:12:28;19.20;99.90
19906;DHT22;10115;50.906;4.438;2022-08-18T01:14:55;19.30;99.90
19906;DHT22;10115;50.906;4.438;2022-08-18T01:17:22;19.30;99.90
19906;DHT22;10115;50.906;4.438;2022-08-18T01:20:09;19.30;99.90
19906;DHT22;10115;50.906;4.438;2022-08-18T01:22:55;19.40;99.90
19906;DHT22;10115;50.906;4.438;2022-08-18T01:25:22;19.40;99.90
19906;DHT22;10115;50.906;4.438;2022-08-18T01:28:06;19.60;99.90
19906;DHT22;10115;50.906;4.438;2022-08-18T01:30:47;19.50;99.90
19906;DHT22;10115;50.906;4.438;2022-08-18T01:33:14;19.50;99.90
19906;DHT22;10115;50.906;4.438;2022-08-18T01:35:40;19.60;99.90
19906;DHT22;10115;50.906;4.438;2022-08-18T01:38:07;19.60;99.90
19906;DHT22;10115;50.906;4.438;2022-08-18T01:40:33;19.40;99.90
19906;DHT22;10115;50.906;4.438;2022-08-18T01:42:59;19.30;99.90
19906;DHT22;10115;50.906;4.438;2022-08-18T01:45:28;19.40;99.90
19906;DHT22;10115;50.906;4.438;2022-08-18T01:47:54;19.60;99.90
19906;DHT22;10115;50.906;4.438;2022-08-18T01:50:20;19.70;99.90
19906;DHT22;10115;50.906;4.438;2022-08-18T01:52:45;19.80;99.90
19906;DHT22;10115;50.906;4.438;2022-08-18T01:55:11;19.70;99.90
19906;DHT22;10115;50.906;4.438;2022-08-18T01:57:38;19.60;99.90
19906;DHT22;10115;50.906;4.438;2022-08-18T02:00:15;19.50;99.90
19906;DHT22;10115;50.906;4.438;2022-08-18T02:02:41;19.40;99.90
19906;DHT22;10115;50.906;4.438;2022-08-18T02:05:20;19.10;99.90
19906;DHT22;10115;50.906;4.438;2022-08-18T02:07:48;18.90;99.90
19906;DHT22;10115;50.906;4.438;2022-08-18T02:10:14;18.90;99.90
19906;DHT22;10115;50.906;4.438;2022-08-18T02:12:40;19.00;99.90
19906;DHT22;10115;50.906;4.438;2022-08-18T02:15:07;19.10;99.90
19906;DHT22;10115;50.906;4.438;2022-08-18T02:17:41;19.00;99.90
19906;DHT22;10115;50.906;4.438;2022-08-18T02:20:10;18.80;99.90
19906;DHT22;10115;50.906;4.438;2022-08-18T02:22:36;18.60;99.90
19906;DHT22;10115;50.906;4.438;2022-08-18T02:25:03;18.70;99.90
19906;DHT22;10115;50.906;4.438;2022-08-18T02:27:29;18.50;99.90
19906;DHT22;10115;50.906;4.438;2022-08-18T02:29:58;18.50;99.90
19906;DHT22;10115;50.906;4.438;2022-08-18T02:32:24;18.50;99.90
19906;DHT22;10115;50.906;4.438;2022-08-18T02:34:50;18.40;99.90
19906;DHT22;10115;50.906;4.438;2022-08-18T02:37:16;18.40;99.90
19906;DHT22;10115;50.906;4.438;2022-08-18T02:39:41;18.40;99.90
19906;DHT22;10115;50.906;4.438;2022-08-18T02:42:07;18.30;99.90
19906;DHT22;10115;50.906;4.438;2022-08-18T02:44:34;18.30;99.90
19906;DHT22;10115;50.906;4.438;2022-08-18T02:47:00;18.40;99.90
19906;DHT22;10115;50.906;4.438;2022-08-18T02:49:26;18.40;99.90
19906;DHT22;10115;50.906;4.438;2022-08-18T02:51:53;18.50;99.90
19906;DHT22;10115;50.906;4.438;2022-08-18T02:54:20;18.50;99.90
19906;DHT22;10115;50.906;4.438;2022-08-18T02:56:48;18.50;99.90
19906;DHT22;10115;50.906;4.438;2022-08-18T02:59:18;18.50;99.90
19906;DHT22;10115;50.906;4.438;2022-08-18T03:01:46;18.60;99.90
19906;DHT22;10115;50.906;4.438;2022-08-18T03:04:18;18.70;99.90
19906;DHT22;10115;50.906;4.438;2022-08-18T03:06:44;18.80;99.90
19906;DHT22;10115;50.906;4.438;2022-08-18T03:09:11;18.80;99.90
19906;DHT22;10115;50.906;4.438;2022-08-18T03:11:37;18.90;99.90
19906;DHT22;10115;50.906;4.438;2022-08-18T03:14:03;18.90;99.90
19906;DHT22;10115;50.906;4.438;2022-08-18T03:16:33;19.10;99.90
19906;DHT22;10115;50.906;4.438;2022-08-18T03:19:01;19.20;99.90
19906;DHT22;10115;50.906;4.438;2022-08-18T03:21:29;19.10;99.90
19906;DHT22;10115;50.906;4.438;2022-08-18T03:23:55;19.20;99.90
19906;DHT22;10115;50.906;4.438;2022-08-18T03:26:22;19.10;99.90
19906;DHT22;10115;50.906;4.438;2022-08-18T03:28:51;19.20;99.90
19906;DHT22;10115;50.906;4.438;2022-08-18T03:31:20;19.40;99.90
19906;DHT22;10115;50.906;4.438;2022-08-18T03:33:47;19.40;99.90
19906;DHT22;10115;50.906;4.438;2022-08-18T03:36:18;19.30;99.90
19906;DHT22;10115;50.906;4.438;2022-08-18T03:38:45;19.30;99.90
19906;DHT22;10115;50.906;4.438;2022-08-18T03:41:13;19.10;99.90
19906;DHT22;10115;50.906;4.438;2022-08-18T03:43:39;19.10;99.90
19906;DHT22;10115;50.906;4.438;2022-08-18T03:46:08;19.00;99.90
19906;DHT22;10115;50.906;4.438;2022-08-18T03:48:36;19.10;99.90
19906;DHT22;10115;50.906;4.438;2022-08-18T03:51:07;19.00;99.90
19906;DHT22;10115;50.906;4.438;2022-08-18T03:53:34;18.90;99.90
19906;DHT22;10115;50.906;4.438;2022-08-18T03:56:01;18.80;99.90
19906;DHT22;10115;50.906;4.438;2022-08-18T03:58:27;18.80;99.90
19906;DHT22;10115;50.906;4.438;2022-08-18T04:00:53;18.80;99.90
19906;DHT22;10115;50.906;4.438;2022-08-18T04:03:19;18.80;99.90
19906;DHT22;10115;50.906;4.438;2022-08-18T04:05:44;18.80;99.90
19906;DHT22;10115;50.906;4.438;2022-08-18T04:08:11;18.80;99.90
19906;DHT22;10115;50.906;4.438;2022-08-18T04:10:37;18.90;99.90
19906;DHT22;10115;50.906;4.438;2022-08-18T04:13:03;19.20;99.90
19906;DHT22;10115;50.906;4.438;2022-08-18T04:15:32;19.10;99.90
19906;DHT22;10115;50.906;4.438;2022-08-18T04:17:59;19.00;99.90
19906;DHT22;10115;50.906;4.438;2022-08-18T04:20:25;18.90;99.90
19906;DHT22;10115;50.906;4.438;2022-08-18T04:22:51;18.80;99.90
19906;DHT22;10115;50.906;4.438;2022-08-18T04:25:17;18.90;99.90
19906;DHT22;10115;50.906;4.438;2022-08-18T04:27:42;19.00;99.90
19906;DHT22;10115;50.906;4.438;2022-08-18T04:30:08;19.00;99.90
19906;DHT22;10115;50.906;4.438;2022-08-18T04:32:35;19.00;99.90
19906;DHT22;10115;50.906;4.438;2022-08-18T04:35:01;19.00;99.90
19906;DHT22;10115;50.906;4.438;2022-08-18T04:37:26;19.00;99.90
19906;DHT22;10115;50.906;4.438;2022-08-18T04:39:52;18.90;99.90
19906;DHT22;10115;50.906;4.438;2022-08-18T04:42:18;18.90;99.90
19906;DHT22;10115;50.906;4.438;2022-08-18T04:44:43;18.80;99.90
19906;DHT22;10115;50.906;4.438;2022-08-18T04:47:09;18.60;99.90
19906;DHT22;10115;50.906;4.438;2022-08-18T04:49:35;18.60;99.90
19906;DHT22;10115;50.906;4.438;2022-08-18T04:52:04;18.90;99.90
19906;DHT22;10115;50.906;4.438;2022-08-18T04:54:48;19.00;99.90
19906;DHT22;10115;50.906;4.438;2022-08-18T04:57:16;19.00;99.90
19906;DHT22;10115;50.906;4.438;2022-08-18T04:59:45;19.00;99.90
19906;DHT22;10115;50.906;4.438;2022-08-18T05:02:12;19.10;99.90
19906;DHT22;10115;50.906;4.438;2022-08-18T05:04:41;19.10;99.90
19906;DHT22;10115;50.906;4.438;2022-08-18T05:07:08;18.90;99.90
19906;DHT22;10115;50.906;4.438;2022-08-18T05:09:35;18.70;99.90
19906;DHT22;10115;50.906;4.438;2022-08-18T05:12:06;18.70;99.90
19906;DHT22;10115;50.906;4.438;2022-08-18T05:14:32;18.60;99.90
19906;DHT22;10115;50.906;4.438;2022-08-18T05:16:59;18.70;99.90
19906;DHT22;10115;50.906;4.438;2022-08-18T05:19:26;18.80;99.90
19906;DHT22;10115;50.906;4.438;2022-08-18T05:21:52;18.90;99.90
19906;DHT22;10115;50.906;4.438;2022-08-18T05:24:20;18.90;99.90
19906;DHT22;10115;50.906;4.438;2022-08-18T05:26:46;18.80;99.90
19906;DHT22;10115;50.906;4.438;2022-08-18T05:29:13;18.90;99.90
19906;DHT22;10115;50.906;4.438;2022-08-18T05:31:39;18.80;99.90
19906;DHT22;10115;50.906;4.438;2022-08-18T05:34:04;18.90;99.90
19906;DHT22;10115;50.906;4.438;2022-08-18T05:36:45;19.20;99.90
19906;DHT22;10115;50.906;4.438;2022-08-18T05:44:23;19.40;99.90
19906;DHT22;10115;50.906;4.438;2022-08-18T05:46:49;19.30;99.90
19906;DHT22;10115;50.906;4.438;2022-08-18T05:49:17;19.40;99.90
19906;DHT22;10115;50.906;4.438;2022-08-18T05:52:14;19.40;99.90
19906;DHT22;10115;50.906;4.438;2022-08-18T05:54:42;19.50;99.90
19906;DHT22;10115;50.906;4.438;2022-08-18T05:57:32;19.70;99.90
19906;DHT22;10115;50.906;4.438;2022-08-18T05:59:58;19.60;99.90
19906;DHT22;10115;50.906;4.438;2022-08-18T06:02:57;19.50;99.90
19906;DHT22;10115;50.906;4.438;2022-08-18T06:05:54;19.50;99.90
19906;DHT22;10115;50.906;4.438;2022-08-18T06:08:24;19.50;99.90
19906;DHT22;10115;50.906;4.438;2022-08-18T06:10:52;19.60;99.90
19906;DHT22;10115;50.906;4.438;2022-08-18T06:13:19;19.50;99.90
19906;DHT22;10115;50.906;4.438;2022-08-18T06:16:13;19.30;99.90
19906;DHT22;10115;50.906;4.438;2022-08-18T06:19:10;19.30;99.90
19906;DHT22;10115;50.906;4.438;2022-08-18T06:21:48;19.30;99.90
19906;DHT22;10115;50.906;4.438;2022-08-18T06:24:43;19.50;99.90
19906;DHT22;10115;50.906;4.438;2022-08-18T06:28:00;19.40;99.90
19906;DHT22;10115;50.906;4.438;2022-08-18T06:33:52;19.50;99.90
19906;DHT22;10115;50.906;4.438;2022-08-18T06:36:35;19.60;99.90
19906;DHT22;10115;50.906;4.438;2022-08-18T06:39:11;19.90;99.90
19906;DHT22;10115;50.906;4.438;2022-08-18T06:41:46;19.90;99.90
19906;DHT22;10115;50.906;4.438;2022-08-18T06:44:38;20.00;99.90
19906;DHT22;10115;50.906;4.438;2022-08-18T06:50:10;20.00;99.90
19906;DHT22;10115;50.906;4.438;2022-08-18T06:52:51;20.10;99.90
19906;DHT22;10115;50.906;4.438;2022-08-18T06:55:37;20.20;99.90
19906;DHT22;10115;50.906;4.438;2022-08-18T07:00:53;20.50;99.90
19906;DHT22;10115;50.906;4.438;2022-08-18T07:03:22;20.60;99.90
19906;DHT22;10115;50.906;4.438;2022-08-18T07:13:46;20.70;99.90
19906;DHT22;10115;50.906;4.438;2022-08-18T07:19:04;20.90;99.90
19906;DHT22;10115;50.906;4.438;2022-08-18T07:21:32;21.10;99.90
19906;DHT22;10115;50.906;4.438;2022-08-18T07:24:05;21.00;99.90
19906;DHT22;10115;50.906;4.438;2022-08-18T07:29:32;20.90;99.90
19906;DHT22;10115;50.906;4.438;2022-08-18T07:32:04;21.00;99.90
19906;DHT22;10115;50.906;4.438;2022-08-18T07:34:49;21.20;99.90
19906;DHT22;10115;50.906;4.438;2022-08-18T07:40:03;21.30;99.90
19906;DHT22;10115;50.906;4.438;2022-08-18T07:43:00;21.30;99.90
19906;DHT22;10115;50.906;4.438;2022-08-18T07:47:56;21.50;99.90
19906;DHT22;10115;50.906;4.438;2022-08-18T07:50:24;21.50;99.90
19906;DHT22;10115;50.906;4.438;2022-08-18T07:53:25;21.50;99.90
19906;DHT22;10115;50.906;4.438;2022-08-18T07:56:04;22.00;99.90
19906;DHT22;10115;50.906;4.438;2022-08-18T07:58:39;22.10;99.90
19906;DHT22;10115;50.906;4.438;2022-08-18T08:01:31;22.10;99.90
19906;DHT22;10115;50.906;4.438;2022-08-18T08:06:53;22.10;99.90
19906;DHT22;10115;50.906;4.438;2022-08-18T08:14:45;22.40;99.90
19906;DHT22;10115;50.906;4.438;2022-08-18T08:17:31;22.40;99.90
19906;DHT22;10115;50.906;4.438;2022-08-18T08:28:27;23.30;99.90
19906;DHT22;10115;50.906;4.438;2022-08-18T08:36:43;23.30;99.90
19906;DHT22;10115;50.906;4.438;2022-08-18T08:39:47;23.40;99.90
19906;DHT22;10115;50.906;4.438;2022-08-18T08:42:16;23.50;99.90
19906;DHT22;10115;50.906;4.438;2022-08-18T08:44:51;23.40;99.90
19906;DHT22;10115;50.906;4.438;2022-08-18T08:47:43;23.50;99.90
19906;DHT22;10115;50.906;4.438;2022-08-18T08:50:16;23.40;99.90
19906;DHT22;10115;50.906;4.438;2022-08-18T08:53:13;23.30;99.90
19906;DHT22;10115;50.906;4.438;2022-08-18T08:55:54;23.20;99.90
19906;DHT22;10115;50.906;4.438;2022-08-18T08:58:42;22.70;99.90
19906;DHT22;10115;50.906;4.438;2022-08-18T09:01:33;22.70;99.90
19906;DHT22;10115;50.906;4.438;2022-08-18T09:04:27;22.80;99.90
19906;DHT22;10115;50.906;4.438;2022-08-18T09:10:00;23.30;99.90
19906;DHT22;10115;50.906;4.438;2022-08-18T09:15:40;23.90;99.90
19906;DHT22;10115;50.906;4.438;2022-08-18T09:29:17;23.90;99.90
19906;DHT22;10115;50.906;4.438;2022-08-18T09:31:46;23.90;99.90
19906;DHT22;10115;50.906;4.438;2022-08-18T09:37:13;23.60;99.90
19906;DHT22;10115;50.906;4.438;2022-08-18T09:43:14;23.60;99.90
19906;DHT22;10115;50.906;4.438;2022-08-18T09:48:38;24.10;99.90
19906;DHT22;10115;50.906;4.438;2022-08-18T09:51:31;24.00;99.90
19906;DHT22;10115;50.906;4.438;2022-08-18T09:54:10;24.10;99.90
19906;DHT22;10115;50.906;4.438;2022-08-18T10:01:59;26.00;99.90
19906;DHT22;10115;50.906;4.438;2022-08-18T10:04:37;25.90;99.90
19906;DHT22;10115;50.906;4.438;2022-08-18T10:07:43;25.80;99.90
19906;DHT22;10115;50.906;4.438;2022-08-18T10:18:55;25.60;99.90
19906;DHT22;10115;50.906;4.438;2022-08-18T10:21:27;25.50;99.90
19906;DHT22;10115;50.906;4.438;2022-08-18T10:24:19;25.50;99.90
19906;DHT22;10115;50.906;4.438;2022-08-18T10:34:41;23.60;99.90
19906;DHT22;10115;50.906;4.438;2022-08-18T10:37:35;23.90;99.90
19906;DHT22;10115;50.906;4.438;2022-08-18T10:42:37;24.30;99.90
19906;DHT22;10115;50.906;4.438;2022-08-18T10:48:15;24.50;99.90
19906;DHT22;10115;50.906;4.438;2022-08-18T10:50:48;24.60;99.90
19906;DHT22;10115;50.906;4.438;2022-08-18T11:04:35;25.20;99.90
19906;DHT22;10115;50.906;4.438;2022-08-18T11:07:11;25.90;99.90
19906;DHT22;10115;50.906;4.438;2022-08-18T11:09:41;26.10;99.90
19906;DHT22;10115;50.906;4.438;2022-08-18T11:12:10;25.90;99.90
19906;DHT22;10115;50.906;4.438;2022-08-18T11:19:38;25.90;99.90
19906;DHT22;10115;50.906;4.438;2022-08-18T11:22:05;26.40;99.90
19906;DHT22;10115;50.906;4.438;2022-08-18T11:24:31;26.90;99.90
19906;DHT22;10115;50.906;4.438;2022-08-18T11:27:17;27.10;99.90
19906;DHT22;10115;50.906;4.438;2022-08-18T11:29:43;27.60;99.90
19906;DHT22;10115;50.906;4.438;2022-08-18T11:32:22;27.70;99.90
19906;DHT22;10115;50.906;4.438;2022-08-18T11:35:15;27.00;99.90
19906;DHT22;10115;50.906;4.438;2022-08-18T11:37:48;26.00;99.90
19906;DHT22;10115;50.906;4.438;2022-08-18T12:01:36;27.00;99.90
19906;DHT22;10115;50.906;4.438;2022-08-18T12:09:44;26.30;99.90
19906;DHT22;10115;50.906;4.438;2022-08-18T12:14:59;26.60;99.90
19906;DHT22;10115;50.906;4.438;2022-08-18T12:17:27;27.10;99.90
19906;DHT22;10115;50.906;4.438;2022-08-18T12:19:53;27.50;99.90
19906;DHT22;10115;50.906;4.438;2022-08-18T12:22:22;27.30;99.90
19906;DHT22;10115;50.906;4.438;2022-08-18T12:24:48;27.80;99.90
19906;DHT22;10115;50.906;4.438;2022-08-18T12:27:17;28.10;99.90
19906;DHT22;10115;50.906;4.438;2022-08-18T12:29:43;27.30;99.90
19906;DHT22;10115;50.906;4.438;2022-08-18T12:32:09;28.00;99.90
19906;DHT22;10115;50.906;4.438;2022-08-18T12:34:35;27.40;99.90
19906;DHT22;10115;50.906;4.438;2022-08-18T12:37:01;26.80;99.90
19906;DHT22;10115;50.906;4.438;2022-08-18T12:39:28;27.30;99.90
19906;DHT22;10115;50.906;4.438;2022-08-18T12:41:55;27.30;99.90
19906;DHT22;10115;50.906;4.438;2022-08-18T12:44:21;27.40;99.90
19906;DHT22;10115;50.906;4.438;2022-08-18T12:46:47;28.00;99.90
19906;DHT22;10115;50.906;4.438;2022-08-18T12:49:16;28.70;99.90
19906;DHT22;10115;50.906;4.438;2022-08-18T12:51:43;28.50;99.90
19906;DHT22;10115;50.906;4.438;2022-08-18T12:54:09;26.70;99.90
19906;DHT22;10115;50.906;4.438;2022-08-18T12:56:35;25.90;99.90
19906;DHT22;10115;50.906;4.438;2022-08-18T12:59:06;26.10;99.90
19906;DHT22;10115;50.906;4.438;2022-08-18T13:01:34;26.00;99.90
19906;DHT22;10115;50.906;4.438;2022-08-18T13:04:01;25.50;99.90
19906;DHT22;10115;50.906;4.438;2022-08-18T13:06:26;25.50;99.90
19906;DHT22;10115;50.906;4.438;2022-08-18T13:08:53;25.80;99.90
19906;DHT22;10115;50.906;4.438;2022-08-18T13:11:22;25.50;99.90
19906;DHT22;10115;50.906;4.438;2022-08-18T13:13:49;25.90;99.90
19906;DHT22;10115;50.906;4.438;2022-08-18T13:16:15;26.40;99.90
19906;DHT22;10115;50.906;4.438;2022-08-18T13:18:42;27.70;99.90
19906;DHT22;10115;50.906;4.438;2022-08-18T13:21:09;29.20;99.90
19906;DHT22;10115;50.906;4.438;2022-08-18T13:23:36;29.80;99.90
19906;DHT22;10115;50.906;4.438;2022-08-18T13:26:05;29.80;99.90
19906;DHT22;10115;50.906;4.438;2022-08-18T13:28:33;31.20;99.90
19906;DHT22;10115;50.906;4.438;2022-08-18T13:30:59;32.80;99.90
19906;DHT22;10115;50.906;4.438;2022-08-18T13:33:24;33.20;99.90
19906;DHT22;10115;50.906;4.438;2022-08-18T13:35:51;34.30;99.90
19906;DHT22;10115;50.906;4.438;2022-08-18T13:38:18;34.10;99.90
19906;DHT22;10115;50.906;4.438;2022-08-18T13:40:54;33.60;99.90
19906;DHT22;10115;50.906;4.438;2022-08-18T13:43:28;31.50;99.90
19906;DHT22;10115;50.906;4.438;2022-08-18T13:45:55;30.50;99.90
19906;DHT22;10115;50.906;4.438;2022-08-18T13:48:20;30.40;99.90
19906;DHT22;10115;50.906;4.438;2022-08-18T13:50:46;30.20;99.90
19906;DHT22;10115;50.906;4.438;2022-08-18T13:53:17;31.20;99.90
19906;DHT22;10115;50.906;4.438;2022-08-18T13:55:44;30.40;99.90
19906;DHT22;10115;50.906;4.438;2022-08-18T13:58:10;31.20;99.90
19906;DHT22;10115;50.906;4.438;2022-08-18T14:00:37;31.40;99.90
19906;DHT22;10115;50.906;4.438;2022-08-18T14:03:03;32.20;99.90
19906;DHT22;10115;50.906;4.438;2022-08-18T14:05:30;32.30;99.90
19906;DHT22;10115;50.906;4.438;2022-08-18T14:07:56;33.30;99.90
19906;DHT22;10115;50.906;4.438;2022-08-18T14:10:21;33.20;99.90
19906;DHT22;10115;50.906;4.438;2022-08-18T14:12:51;32.00;99.90
19906;DHT22;10115;50.906;4.438;2022-08-18T14:15:18;31.80;99.90
19906;DHT22;10115;50.906;4.438;2022-08-18T14:17:45;33.40;99.90
19906;DHT22;10115;50.906;4.438;2022-08-18T14:20:11;30.60;99.90
19906;DHT22;10115;50.906;4.438;2022-08-18T14:22:57;30.60;99.90
19906;DHT22;10115;50.906;4.438;2022-08-18T14:25:42;30.90;99.90
19906;DHT22;10115;50.906;4.438;2022-08-18T14:28:27;31.90;99.90
19906;DHT22;10115;50.906;4.438;2022-08-18T14:30:53;32.60;99.90
19906;DHT22;10115;50.906;4.438;2022-08-18T14:33:21;32.10;99.90
19906;DHT22;10115;50.906;4.438;2022-08-18T14:35:47;32.10;99.90
19906;DHT22;10115;50.906;4.438;2022-08-18T14:38:14;31.90;99.90
19906;DHT22;10115;50.906;4.438;2022-08-18T14:40:41;32.60;99.90
19906;DHT22;10115;50.906;4.438;2022-08-18T14:43:08;32.80;99.90
19906;DHT22;10115;50.906;4.438;2022-08-18T14:45:34;31.70;99.90
19906;DHT22;10115;50.906;4.438;2022-08-18T14:48:04;28.90;99.90
19906;DHT22;10115;50.906;4.438;2022-08-18T14:50:30;29.40;99.90
19906;DHT22;10115;50.906;4.438;2022-08-18T14:52:55;29.60;99.90
19906;DHT22;10115;50.906;4.438;2022-08-18T14:55:21;31.00;99.90
19906;DHT22;10115;50.906;4.438;2022-08-18T14:57:47;30.90;99.90
19906;DHT22;10115;50.906;4.438;2022-08-18T15:00:16;29.70;99.90
19906;DHT22;10115;50.906;4.438;2022-08-18T15:02:43;28.80;99.90
19906;DHT22;10115;50.906;4.438;2022-08-18T15:05:10;28.60;99.90
19906;DHT22;10115;50.906;4.438;2022-08-18T15:07:36;30.00;99.90
19906;DHT22;10115;50.906;4.438;2022-08-18T15:10:10;28.80;99.90
19906;DHT22;10115;50.906;4.438;2022-08-18T15:12:37;28.70;99.90
19906;DHT22;10115;50.906;4.438;2022-08-18T15:15:04;29.30;99.90
19906;DHT22;10115;50.906;4.438;2022-08-18T15:17:30;31.30;99.90
19906;DHT22;10115;50.906;4.438;2022-08-18T15:19:56;33.30;99.90
19906;DHT22;10115;50.906;4.438;2022-08-18T15:22:22;34.40;99.90
19906;DHT22;10115;50.906;4.438;2022-08-18T15:25:07;32.00;99.90
19906;DHT22;10115;50.906;4.438;2022-08-18T15:27:52;31.60;99.90
19906;DHT22;10115;50.906;4.438;2022-08-18T15:30:19;33.40;99.90
19906;DHT22;10115;50.906;4.438;2022-08-18T15:32:46;34.30;99.90
19906;DHT22;10115;50.906;4.438;2022-08-18T15:35:14;34.80;99.90
19906;DHT22;10115;50.906;4.438;2022-08-18T15:37:43;34.60;99.90
19906;DHT22;10115;50.906;4.438;2022-08-18T15:40:12;35.00;99.90
19906;DHT22;10115;50.906;4.438;2022-08-18T15:42:47;33.80;99.90
19906;DHT22;10115;50.906;4.438;2022-08-18T15:45:20;34.80;99.90
19906;DHT22;10115;50.906;4.438;2022-08-18T15:47:46;35.90;99.90
19906;DHT22;10115;50.906;4.438;2022-08-18T15:50:13;34.70;99.90
19906;DHT22;10115;50.906;4.438;2022-08-18T15:52:52;34.10;99.90
19906;DHT22;10115;50.906;4.438;2022-08-18T15:55:20;34.30;99.90
19906;DHT22;10115;50.906;4.438;2022-08-18T15:57:47;34.50;99.90
19906;DHT22;10115;50.906;4.438;2022-08-18T16:00:14;35.20;99.90
19906;DHT22;10115;50.906;4.438;2022-08-18T16:02:48;34.70;99.90
19906;DHT22;10115;50.906;4.438;2022-08-18T16:05:15;33.40;99.90
19906;DHT22;10115;50.906;4.438;2022-08-18T16:07:41;34.50;99.90
19906;DHT22;10115;50.906;4.438;2022-08-18T16:10:12;33.90;99.90
19906;DHT22;10115;50.906;4.438;2022-08-18T16:12:38;30.60;99.90
19906;DHT22;10115;50.906;4.438;2022-08-18T16:15:04;29.80;99.90
19906;DHT22;10115;50.906;4.438;2022-08-18T16:17:30;29.90;99.90
19906;DHT22;10115;50.906;4.438;2022-08-18T16:19:56;29.70;99.90
19906;DHT22;10115;50.906;4.438;2022-08-18T16:22:22;28.70;99.90
19906;DHT22;10115;50.906;4.438;2022-08-18T16:24:48;28.10;99.90
19906;DHT22;10115;50.906;4.438;2022-08-18T16:27:14;28.90;99.90
19906;DHT22;10115;50.906;4.438;2022-08-18T16:29:41;30.10;99.90
19906;DHT22;10115;50.906;4.438;2022-08-18T16:32:06;31.10;99.90
19906;DHT22;10115;50.906;4.438;2022-08-18T16:34:32;31.10;99.90
19906;DHT22;10115;50.906;4.438;2022-08-18T16:36:59;31.10;99.90
19906;DHT22;10115;50.906;4.438;2022-08-18T16:39:25;31.80;99.90
19906;DHT22;10115;50.906;4.438;2022-08-18T16:41:50;33.20;99.90
19906;DHT22;10115;50.906;4.438;2022-08-18T16:44:16;34.30;99.90
19906;DHT22;10115;50.906;4.438;2022-08-18T16:46:42;33.70;99.90
19906;DHT22;10115;50.906;4.438;2022-08-18T16:49:08;34.40;99.90
19906;DHT22;10115;50.906;4.438;2022-08-18T16:51:35;34.00;99.90
19906;DHT22;10115;50.906;4.438;2022-08-18T16:54:01;34.00;99.90
19906;DHT22;10115;50.906;4.438;2022-08-18T16:56:29;33.20;99.90
19906;DHT22;10115;50.906;4.438;2022-08-18T16:58:56;33.50;99.90
19906;DHT22;10115;50.906;4.438;2022-08-18T17:01:41;34.00;99.90
19906;DHT22;10115;50.906;4.438;2022-08-18T17:04:28;33.50;99.90
19906;DHT22;10115;50.906;4.438;2022-08-18T17:06:58;33.00;99.90
19906;DHT22;10115;50.906;4.438;2022-08-18T17:09:24;31.90;99.90
19906;DHT22;10115;50.906;4.438;2022-08-18T17:11:51;32.60;99.90
19906;DHT22;10115;50.906;4.438;2022-08-18T17:14:21;32.50;99.90
19906;DHT22;10115;50.906;4.438;2022-08-18T17:16:48;31.90;99.90
19906;DHT22;10115;50.906;4.438;2022-08-18T17:19:18;31.90;99.90
19906;DHT22;10115;50.906;4.438;2022-08-18T17:21:44;32.50;99.90
19906;DHT22;10115;50.906;4.438;2022-08-18T17:24:10;31.30;99.90
19906;DHT22;10115;50.906;4.438;2022-08-18T17:27:15;31.30;99.90
19906;DHT22;10115;50.906;4.438;2022-08-18T17:29:55;31.90;99.90
19906;DHT22;10115;50.906;4.438;2022-08-18T17:32:36;30.90;99.90
19906;DHT22;10115;50.906;4.438;2022-08-18T17:35:06;30.00;99.90
19906;DHT22;10115;50.906;4.438;2022-08-18T17:37:33;29.50;99.90
19906;DHT22;10115;50.906;4.438;2022-08-18T17:40:07;29.30;99.90
19906;DHT22;10115;50.906;4.438;2022-08-18T17:42:35;29.00;99.90
19906;DHT22;10115;50.906;4.438;2022-08-18T17:45:07;28.40;99.90
19906;DHT22;10115;50.906;4.438;2022-08-18T17:48:03;27.50;99.90
19906;DHT22;10115;50.906;4.438;2022-08-18T17:50:39;27.50;99.90
19906;DHT22;10115;50.906;4.438;2022-08-18T17:53:24;27.40;99.90
19906;DHT22;10115;50.906;4.438;2022-08-18T17:55:57;27.40;99.90
19906;DHT22;10115;50.906;4.438;2022-08-18T17:58:39;27.60;99.90
19906;DHT22;10115;50.906;4.438;2022-08-18T18:01:10;27.10;99.90
19906;DHT22;10115;50.906;4.438;2022-08-18T18:03:36;26.90;99.90
19906;DHT22;10115;50.906;4.438;2022-08-18T18:06:10;27.10;99.90
19906;DHT22;10115;50.906;4.438;2022-08-18T18:08:57;27.00;99.90
19906;DHT22;10115;50.906;4.438;2022-08-18T18:11:34;26.70;99.90
19906;DHT22;10115;50.906;4.438;2022-08-18T18:17:23;26.30;99.90
19906;DHT22;10115;50.906;4.438;2022-08-18T18:19:54;25.70;99.90
19906;DHT22;10115;50.906;4.438;2022-08-18T18:22:26;25.50;99.90
19906;DHT22;10115;50.906;4.438;2022-08-18T18:24:58;25.50;99.90
19906;DHT22;10115;50.906;4.438;2022-08-18T18:30:02;25.80;99.90
19906;DHT22;10115;50.906;4.438;2022-08-18T18:32:58;26.10;99.90
19906;DHT22;10115;50.906;4.438;2022-08-18T18:38:25;26.00;99.90
19906;DHT22;10115;50.906;4.438;2022-08-18T18:51:16;25.50;99.90